This is the latest recevied weather packets stored in our database for station/object LRBS. If no packets are shown the sender has not sent any weather packets the latest 10 day(s).
| Time | Temp. | Humidity | Pressure | Rain* | Wind** | Luminosity | Snow |
|---|---|---|---|---|---|---|---|
| 1788526995 | 28.89° C | 37% | 1016 hPa | - | - | - | - |
| 1788521595 | 27.78° C | 42% | 1017 hPa | - | - | - | - |
| 1788519870 | 28.89° C | 40% | 1017 hPa | - | - | - | - |
| 1788518060 | 27.22° C | 48% | 1017 hPa | - | - | - | - |
| 1788517103 | 27.22° C | 48% | 1017 hPa | - | - | - | - |
| 1788514394 | 26.11° C | 51% | 1017 hPa | - | - | - | - |
| 1788510794 | 23.89° C | 54% | 1017 hPa | - | - | - | - |
| 1788509897 | 22.78° C | 61% | 1018 hPa | - | - | - | - |
| 1788508995 | 22.78° C | 61% | 1018 hPa | - | - | - | - |
| 1788508169 | 22.78° C | 61% | 1018 hPa | - | - | - | - |
| 1788507195 | 22.78° C | 61% | 1018 hPa | - | - | - | - |
| 1788506294 | 22.22° C | 69% | 1017 hPa | - | - | - | - |
| 1788505395 | 22.22° C | 69% | 1017 hPa | - | - | - | - |
| 1788503594 | 21.11° C | 73% | 1017 hPa | - | - | - | - |
| 1788502695 | 18.89° C | 88% | 1017 hPa | - | - | - | - |
| 1788501794 | 18.89° C | 88% | 1017 hPa | - | - | - | - |
| 1788500895 | 18.89° C | 83% | 1017 hPa | - | - | - | - |
| 1788499995 | 18.89° C | 83% | 1017 hPa | - | - | - | - |
| 1788499094 | 17.78° C | 94% | 1017 hPa | - | - | - | - |
| 1788498194 | 17.78° C | 94% | 1017 hPa | - | - | - | - |
| 1788497294 | 17.78° C | 94% | 1017 hPa | - | - | - | - |
| 1788496395 | 17.78° C | 94% | 1017 hPa | - | - | - | - |
| 1788495494 | 17.78° C | 88% | 1017 hPa | - | - | - | - |
| 1788494594 | 17.78° C | 88% | 1017 hPa | - | - | - | - |
| 1788493694 | 17.78° C | 88% | 1017 hPa | - | - | - | - |
* Rain since midnight (hover to see other rain measurements)
** Current wind speed in m/s (hover to see current wind gust speed)